Time;durP1;ratioP1;P1;durP2;ratioP2;P2;SDS_P1;SDS_P2;PMS_P1;PMS_P2;Temp;Humidity;BMP_temperature;BMP_pressure;BME280_temperature;BME280_humidity;BME280_pressure;Samples;Min_cycle;Max_cycle;Signal;HPM_P1;HPM_P2
2022/09/12 00:02:20;;;;;;;12.30;10.87;;;12.60;99.90;;;;;;5097230;28;20177;-45
2022/09/12 00:04:46;;;;;;;12.37;11.27;;;12.60;99.90;;;;;;5097112;28;20206;-43
2022/09/12 00:07:12;;;;;;;11.77;10.77;;;12.60;99.90;;;;;;5099532;28;20251;-45
2022/09/12 00:09:38;;;;;;;11.47;10.47;;;12.60;99.90;;;;;;5100953;28;20577;-46
2022/09/12 00:12:04;;;;;;;11.93;10.87;;;12.50;99.90;;;;;;5100699;28;20280;-43
2022/09/12 00:14:29;;;;;;;11.33;10.33;;;12.50;99.90;;;;;;5100986;28;20236;-44
2022/09/12 00:16:59;;;;;;;12.40;11.20;;;12.50;99.90;;;;;;5100444;28;20957;-43
2022/09/12 00:19:25;;;;;;;11.80;10.80;;;12.50;99.90;;;;;;5100914;28;20205;-44
2022/09/12 00:21:51;;;;;;;11.90;10.67;;;12.50;99.90;;;;;;5099145;28;20742;-45
2022/09/12 00:24:17;;;;;;;12.37;11.07;;;12.50;99.90;;;;;;5100547;28;20422;-45
2022/09/12 00:26:42;;;;;;;11.03;10.03;;;12.50;99.90;;;;;;5100419;28;20548;-44
2022/09/12 00:29:18;;;;;;;11.80;10.70;;;12.40;99.90;;;;;;5100474;28;20181;-44
2022/09/12 00:31:44;;;;;;;11.40;10.40;;;12.40;99.90;;;;;;5098600;28;20218;-45
2022/09/12 00:34:12;;;;;;;12.07;10.90;;;12.40;99.90;;;;;;5099848;28;20909;-45
2022/09/12 00:36:38;;;;;;;11.53;10.47;;;12.30;99.90;;;;;;5099105;28;20582;-44
2022/09/12 00:39:05;;;;;;;11.00;10.10;;;12.40;99.90;;;;;;5099726;28;20746;-46
2022/09/12 00:41:36;;;;;;;12.97;10.67;;;12.30;99.90;;;;;;5100544;28;20440;-43
2022/09/12 00:44:20;;;;;;;10.47;9.50;;;12.30;99.90;;;;;;5100193;28;20415;-45
2022/09/12 00:47:15;;;;;;;11.53;10.33;;;12.30;99.90;;;;;;5100388;28;20490;-45
2022/09/12 00:49:48;;;;;;;12.30;11.07;;;12.30;99.90;;;;;;5093173;28;20434;-46
2022/09/12 00:52:18;;;;;;;12.40;11.07;;;12.20;99.90;;;;;;5099157;28;20458;-45
2022/09/12 00:55:02;;;;;;;12.47;11.40;;;12.10;99.90;;;;;;5099936;28;20416;-45
2022/09/12 00:57:34;;;;;;;10.90;9.90;;;12.00;99.90;;;;;;5098751;28;20463;-44
2022/09/12 01:00:20;;;;;;;11.43;10.40;;;12.00;99.90;;;;;;5097661;28;20411;-44
2022/09/12 01:02:53;;;;;;;13.53;12.30;;;12.00;99.90;;;;;;5099630;28;20433;-46
2022/09/12 01:05:20;;;;;;;12.17;10.97;;;12.00;99.90;;;;;;5099749;28;20484;-44
2022/09/12 01:07:48;;;;;;;12.10;10.90;;;12.00;99.90;;;;;;5099356;28;20500;-44
2022/09/12 01:10:15;;;;;;;12.90;11.60;;;12.00;99.90;;;;;;5099592;28;20421;-45
2022/09/12 01:12:41;;;;;;;12.60;11.40;;;12.00;99.90;;;;;;5099316;28;20440;-42
2022/09/12 01:15:08;;;;;;;13.17;11.93;;;11.90;99.90;;;;;;5099006;28;20418;-44
2022/09/12 01:17:51;;;;;;;12.47;11.30;;;11.90;99.90;;;;;;5096828;28;20536;-45
2022/09/12 01:20:34;;;;;;;12.27;11.07;;;11.90;99.90;;;;;;5098648;28;20442;-45
2022/09/12 01:23:31;;;;;;;9.77;8.77;;;11.90;99.90;;;;;;5099126;28;20492;-47
2022/09/12 01:25:59;;;;;;;11.90;10.80;;;12.30;99.90;;;;;;5099780;28;20523;-43
2022/09/12 01:28:47;;;;;;;13.47;12.27;;;13.20;99.90;;;;;;5099378;28;20423;-44
2022/09/12 01:31:17;;;;;;;11.00;10.10;;;13.40;99.90;;;;;;5099432;28;20421;-44
2022/09/12 01:33:49;;;;;;;12.27;11.17;;;13.10;99.90;;;;;;5099215;28;20466;-46
2022/09/12 01:36:23;;;;;;;11.80;10.80;;;12.90;99.90;;;;;;5099150;28;20420;-44
2022/09/12 01:38:59;;;;;;;11.63;9.43;;;12.80;99.90;;;;;;5099156;28;20420;-44
2022/09/12 01:41:36;;;;;;;10.87;9.87;;;12.60;99.90;;;;;;5098180;28;20447;-47
2022/09/12 01:44:21;;;;;;;10.77;9.77;;;12.50;99.90;;;;;;5099368;28;20428;-44
2022/09/12 01:47:07;;;;;;;10.47;9.50;;;12.40;99.90;;;;;;5099102;28;20498;-44
2022/09/12 01:49:45;;;;;;;11.07;10.07;;;12.30;99.90;;;;;;5097112;28;20774;-43
2022/09/12 01:52:17;;;;;;;10.90;10.00;;;12.20;99.90;;;;;;5097830;28;20425;-44
2022/09/12 01:55:12;;;;;;;11.60;9.70;;;12.10;99.90;;;;;;5097541;28;20424;-44
2022/09/12 01:58:03;;;;;;;10.70;9.60;;;12.00;99.90;;;;;;5057536;28;20542;-43
2022/09/12 02:00:30;;;;;;;11.03;10.07;;;11.90;99.90;;;;;;5099037;28;20428;-43
2022/09/12 02:03:03;;;;;;;11.13;10.10;;;11.90;99.90;;;;;;5098291;28;20442;-46
2022/09/12 02:05:33;;;;;;;11.23;10.10;;;11.90;99.90;;;;;;5098718;28;20407;-46
2022/09/12 02:08:09;;;;;;;10.60;9.60;;;11.90;99.90;;;;;;5097946;28;20423;-46
2022/09/12 02:10:44;;;;;;;11.00;9.90;;;11.80;99.90;;;;;;5096970;28;20696;-44
2022/09/12 02:13:14;;;;;;;11.23;10.23;;;11.80;99.90;;;;;;5095238;28;20412;-45
2022/09/12 02:15:43;;;;;;;11.10;10.00;;;11.70;99.90;;;;;;5094808;28;20407;-44
2022/09/12 02:18:11;;;;;;;9.30;8.40;;;11.70;99.90;;;;;;5093919;28;20498;-45
2022/09/12 02:20:38;;;;;;;11.13;10.10;;;11.60;99.90;;;;;;5094934;28;20429;-43
2022/09/12 02:23:08;;;;;;;10.60;9.50;;;11.60;99.90;;;;;;5077329;28;20968;-46
2022/09/12 02:25:36;;;;;;;11.37;10.27;;;11.50;99.90;;;;;;5095901;28;20699;-44
2022/09/12 02:28:15;;;;;;;9.97;9.10;;;11.50;99.90;;;;;;5095979;28;20442;-44
2022/09/12 02:31:04;;;;;;;10.67;9.57;;;11.50;99.90;;;;;;5097336;28;20758;-45
2022/09/12 02:33:37;;;;;;;10.73;9.73;;;11.50;99.90;;;;;;5098020;28;20535;-44
2022/09/12 02:36:24;;;;;;;11.30;10.30;;;11.50;99.90;;;;;;5097943;28;20710;-44
2022/09/12 02:38:50;;;;;;;11.60;10.53;;;11.40;99.90;;;;;;5098411;28;20460;-43
2022/09/12 02:41:18;;;;;;;11.20;10.20;;;11.40;99.90;;;;;;5097129;28;20414;-44
2022/09/12 02:43:45;;;;;;;10.33;9.47;;;11.40;99.90;;;;;;5098461;28;20190;-45
2022/09/12 02:46:16;;;;;;;11.50;10.40;;;11.40;99.90;;;;;;5097622;28;20455;-44
2022/09/12 02:48:45;;;;;;;11.37;10.27;;;11.30;99.90;;;;;;5097423;28;20538;-48
2022/09/12 02:51:11;;;;;;;11.10;9.67;;;11.30;99.90;;;;;;5098377;28;20416;-45
2022/09/12 02:53:37;;;;;;;12.27;10.90;;;11.30;99.90;;;;;;5098081;28;20745;-43
2022/09/12 02:56:06;;;;;;;10.27;9.37;;;11.30;99.90;;;;;;5097866;28;20177;-44
2022/09/12 02:58:32;;;;;;;10.43;9.43;;;11.20;99.90;;;;;;5097465;28;20423;-44
2022/09/12 03:01:33;;;;;;;10.00;9.07;;;11.20;99.90;;;;;;5098511;28;20405;-43
2022/09/12 03:04:29;;;;;;;10.30;9.30;;;11.30;99.90;;;;;;5096925;28;20432;-43
2022/09/12 03:07:19;;;;;;;10.10;9.20;;;11.20;99.90;;;;;;5096808;28;20421;-44
2022/09/12 03:10:03;;;;;;;11.40;10.40;;;11.20;99.90;;;;;;5096093;28;20454;-45
2022/09/12 03:12:41;;;;;;;11.30;10.20;;;11.20;99.90;;;;;;5095447;28;20822;-44
2022/09/12 03:15:18;;;;;;;9.83;9.03;;;11.20;99.90;;;;;;5095830;28;20492;-44
2022/09/12 03:18:02;;;;;;;11.00;10.00;;;11.10;99.90;;;;;;5095025;28;20458;-44
2022/09/12 03:20:52;;;;;;;9.90;9.00;;;11.10;99.90;;;;;;5095942;28;20416;-43
2022/09/12 03:23:29;;;;;;;9.77;8.80;;;11.10;99.90;;;;;;5095030;28;20556;-45
2022/09/12 03:26:00;;;;;;;10.23;9.33;;;11.10;99.90;;;;;;5094382;28;20426;-43
2022/09/12 03:28:26;;;;;;;10.30;9.30;;;11.10;99.90;;;;;;5093970;28;20690;-43
2022/09/12 03:30:53;;;;;;;9.60;8.70;;;11.10;99.90;;;;;;5095218;28;20820;-44
2022/09/12 03:33:24;;;;;;;9.27;8.37;;;11.10;99.90;;;;;;5095431;28;20420;-44
2022/09/12 03:35:50;;;;;;;10.50;9.50;;;11.00;99.90;;;;;;5094898;28;21030;-45
2022/09/12 03:38:17;;;;;;;10.80;9.70;;;11.00;99.90;;;;;;5096007;28;20474;-44
2022/09/12 03:40:42;;;;;;;10.10;9.10;;;11.00;99.90;;;;;;5096788;28;20817;-48
2022/09/12 03:43:09;;;;;;;9.90;9.00;;;10.90;99.90;;;;;;5101071;28;20440;-43
2022/09/12 03:45:35;;;;;;;10.33;9.40;;;11.00;99.90;;;;;;5099491;28;20200;-44
2022/09/12 03:48:01;;;;;;;10.17;9.27;;;11.00;99.90;;;;;;5097507;28;20478;-44
2022/09/12 03:50:27;;;;;;;10.23;9.30;;;10.90;99.90;;;;;;5100225;28;20427;-44
2022/09/12 03:52:53;;;;;;;11.83;9.57;;;10.90;99.90;;;;;;5097405;28;20428;-43
2022/09/12 03:55:18;;;;;;;9.50;8.60;;;10.90;99.90;;;;;;5099492;28;20185;-43
2022/09/12 03:57:44;;;;;;;10.40;9.50;;;10.90;99.90;;;;;;5098768;28;20251;-44
2022/09/12 04:00:10;;;;;;;9.23;8.43;;;10.80;99.90;;;;;;5098901;28;20449;-44
2022/09/12 04:02:36;;;;;;;9.70;8.47;;;10.80;99.90;;;;;;5098276;28;20276;-45
2022/09/12 04:05:02;;;;;;;11.00;9.57;;;10.80;99.90;;;;;;5096067;28;20512;-45
2022/09/12 04:07:28;;;;;;;10.30;9.30;;;10.80;99.90;;;;;;5094989;28;20178;-43
2022/09/12 04:09:53;;;;;;;9.87;9.00;;;10.80;99.90;;;;;;5096562;28;20425;-44
2022/09/12 04:12:20;;;;;;;10.37;9.37;;;10.80;99.90;;;;;;5095254;28;20184;-44
2022/09/12 04:14:46;;;;;;;10.77;9.40;;;10.80;99.90;;;;;;5095022;28;20554;-43
2022/09/12 04:17:13;;;;;;;10.67;9.63;;;10.70;99.90;;;;;;5095411;28;20556;-44
2022/09/12 04:19:38;;;;;;;9.63;8.70;;;10.70;99.90;;;;;;5094968;28;20475;-44
2022/09/12 04:22:04;;;;;;;10.00;9.10;;;10.70;99.90;;;;;;5094612;28;20755;-45
2022/09/12 04:24:29;;;;;;;10.60;9.60;;;10.70;99.90;;;;;;5094975;28;20203;-44
2022/09/12 04:26:55;;;;;;;10.00;9.10;;;10.70;99.90;;;;;;5095989;28;20571;-43
2022/09/12 04:29:21;;;;;;;11.23;10.10;;;10.70;99.90;;;;;;5085452;28;20185;-45
2022/09/12 04:31:47;;;;;;;12.33;9.20;;;10.70;99.90;;;;;;5089058;28;20185;-45
2022/09/12 04:34:14;;;;;;;11.60;10.60;;;10.60;99.90;;;;;;5095168;28;20846;-43
2022/09/12 04:36:39;;;;;;;11.20;9.33;;;10.60;99.90;;;;;;5097795;28;20205;-44
2022/09/12 04:39:06;;;;;;;10.63;9.63;;;10.60;99.90;;;;;;5097842;28;20427;-44
2022/09/12 04:41:37;;;;;;;10.70;9.47;;;10.60;99.90;;;;;;5097354;28;20264;-46
2022/09/12 04:44:05;;;;;;;10.93;9.90;;;10.60;99.90;;;;;;5094716;28;20433;-44
2022/09/12 04:46:34;;;;;;;9.07;8.23;;;10.50;99.90;;;;;;5094962;28;20479;-43
2022/09/12 04:49:00;;;;;;;10.60;9.60;;;10.50;99.90;;;;;;5093696;28;20416;-45
2022/09/12 04:51:28;;;;;;;10.60;9.60;;;10.50;99.90;;;;;;5092483;28;20809;-44
2022/09/12 04:54:02;;;;;;;11.03;10.03;;;10.50;99.90;;;;;;5090499;28;20179;-43
2022/09/12 04:56:28;;;;;;;11.77;10.70;;;10.50;99.90;;;;;;5086516;28;20486;-43
2022/09/12 04:58:57;;;;;;;11.33;10.17;;;10.50;99.90;;;;;;5076549;28;20512;-43
2022/09/12 05:01:22;;;;;;;10.43;9.43;;;10.50;99.90;;;;;;5075778;28;20425;-43
2022/09/12 05:03:49;;;;;;;10.80;9.80;;;10.50;99.90;;;;;;5074524;28;20878;-43
2022/09/12 05:06:17;;;;;;;11.07;9.80;;;10.50;99.90;;;;;;5074644;28;20200;-43
2022/09/12 05:08:43;;;;;;;11.17;10.10;;;10.50;99.90;;;;;;5074629;28;20420;-42
2022/09/12 05:11:14;;;;;;;11.80;10.70;;;10.50;99.90;;;;;;5074002;28;20517;-45
2022/09/12 05:13:40;;;;;;;10.93;9.87;;;10.50;99.90;;;;;;5091325;28;20252;-45
2022/09/12 05:16:06;;;;;;;11.30;10.20;;;10.60;99.90;;;;;;5090301;28;20735;-46
2022/09/12 05:18:33;;;;;;;10.60;9.60;;;10.60;99.90;;;;;;5092108;28;20437;-44
2022/09/12 05:21:00;;;;;;;10.30;9.30;;;10.60;99.90;;;;;;5091318;28;20539;-44
2022/09/12 05:23:26;;;;;;;11.90;10.57;;;10.60;99.90;;;;;;5094704;28;20785;-45
2022/09/12 05:25:53;;;;;;;10.87;9.77;;;10.60;99.90;;;;;;5093207;28;20420;-44
2022/09/12 05:28:19;;;;;;;10.80;9.70;;;10.60;99.90;;;;;;5092421;28;20506;-44
2022/09/12 05:30:45;;;;;;;10.63;9.53;;;10.70;99.90;;;;;;5092089;28;20447;-43
2022/09/12 05:33:11;;;;;;;11.57;10.47;;;10.70;99.90;;;;;;5094572;28;20449;-45
2022/09/12 05:35:37;;;;;;;11.00;10.00;;;10.70;99.90;;;;;;5095683;28;20445;-48
2022/09/12 05:38:03;;;;;;;11.50;10.40;;;10.80;99.90;;;;;;5093467;28;20888;-43
2022/09/12 05:40:29;;;;;;;11.10;10.00;;;10.80;99.90;;;;;;5091021;28;20181;-46
2022/09/12 05:42:55;;;;;;;10.90;9.90;;;10.90;99.90;;;;;;5092669;28;20448;-43
2022/09/12 05:45:20;;;;;;;11.73;10.20;;;11.00;99.90;;;;;;5091405;28;20466;-44
2022/09/12 05:47:46;;;;;;;11.27;10.27;;;11.00;99.90;;;;;;5090518;28;20176;-43
2022/09/12 05:50:12;;;;;;;13.60;11.03;;;11.10;99.90;;;;;;5091447;28;20179;-45
2022/09/12 05:52:37;;;;;;;12.60;11.40;;;11.20;99.90;;;;;;5092202;28;20177;-45
2022/09/12 05:55:04;;;;;;;11.23;10.13;;;11.30;99.90;;;;;;5092390;28;20628;-43
2022/09/12 05:57:29;;;;;;;10.83;9.73;;;11.40;99.90;;;;;;5092578;28;20714;-45
2022/09/12 05:59:55;;;;;;;11.93;10.83;;;11.50;99.90;;;;;;5095773;28;20769;-46
2022/09/12 06:02:20;;;;;;;11.90;10.77;;;11.60;99.90;;;;;;5094890;28;20185;-47
2022/09/12 06:04:46;;;;;;;12.07;10.80;;;11.80;99.90;;;;;;5093035;28;20580;-48
2022/09/12 06:07:13;;;;;;;11.93;10.80;;;11.90;99.90;;;;;;5091696;28;20188;-45
2022/09/12 06:09:39;;;;;;;11.90;10.80;;;12.00;99.90;;;;;;5092727;28;20423;-44
2022/09/12 06:12:06;;;;;;;12.53;11.33;;;12.20;99.90;;;;;;5093898;28;20438;-47
2022/09/12 06:14:33;;;;;;;13.60;12.40;;;12.40;99.90;;;;;;5092702;28;20287;-47
2022/09/12 06:16:58;;;;;;;14.10;12.80;;;12.50;99.90;;;;;;5091332;28;20752;-45
2022/09/12 06:19:26;;;;;;;14.60;13.30;;;12.70;99.90;;;;;;5091717;28;20426;-46
2022/09/12 06:21:52;;;;;;;13.37;12.17;;;12.80;99.90;;;;;;5091263;28;20186;-45
2022/09/12 06:24:19;;;;;;;12.93;11.70;;;13.00;99.90;;;;;;5091503;28;20407;-44
2022/09/12 06:26:46;;;;;;;14.90;13.30;;;13.10;99.90;;;;;;5089878;28;20426;-46
2022/09/12 06:29:12;;;;;;;13.73;12.33;;;13.30;99.90;;;;;;5088122;28;20408;-46
2022/09/12 06:31:38;;;;;;;15.40;12.63;;;13.40;99.90;;;;;;5091644;28;20757;-44
2022/09/12 06:34:06;;;;;;;12.03;10.93;;;13.50;99.90;;;;;;5091936;28;20754;-44
2022/09/12 06:36:35;;;;;;;12.60;11.37;;;13.70;99.90;;;;;;5095274;28;20498;-44
2022/09/12 06:39:06;;;;;;;13.03;11.83;;;13.90;99.90;;;;;;5094767;28;20421;-45
2022/09/12 06:41:32;;;;;;;12.57;11.27;;;14.20;99.90;;;;;;5074178;28;20497;-45
2022/09/12 06:44:00;;;;;;;13.43;12.13;;;14.50;99.90;;;;;;5092150;28;20809;-45
2022/09/12 06:46:26;;;;;;;12.67;11.40;;;14.80;99.90;;;;;;5092379;28;20423;-45
2022/09/12 06:48:52;;;;;;;11.50;10.33;;;15.10;99.90;;;;;;5091913;28;20426;-47
2022/09/12 06:51:19;;;;;;;13.27;12.00;;;15.40;99.90;;;;;;5089779;28;20418;-46
2022/09/12 06:53:45;;;;;;;13.47;12.03;;;15.70;99.90;;;;;;5091147;28;20428;-45
2022/09/12 06:56:11;;;;;;;13.47;12.07;;;15.90;99.90;;;;;;5091115;28;20848;-44
2022/09/12 06:58:36;;;;;;;11.63;10.50;;;16.10;99.90;;;;;;5091047;28;20423;-43
2022/09/12 07:01:03;;;;;;;9.63;8.83;;;16.30;99.70;;;;;;5091898;28;20174;-45
2022/09/12 07:03:29;;;;;;;11.40;9.33;;;16.50;99.70;;;;;;5092445;28;20178;-44
2022/09/12 07:05:54;;;;;;;10.27;9.27;;;16.70;99.40;;;;;;5091103;28;20717;-46
2022/09/12 07:08:20;;;;;;;8.80;8.07;;;17.00;99.20;;;;;;5092544;28;20234;-46
2022/09/12 07:10:46;;;;;;;10.33;9.50;;;17.30;98.00;;;;;;5094466;28;20184;-47
2022/09/12 07:13:12;;;;;;;8.57;7.77;;;17.60;97.60;;;;;;5093440;28;20176;-46
2022/09/12 07:15:38;;;;;;;10.20;9.30;;;17.80;97.40;;;;;;5091722;28;20587;-44
2022/09/12 07:18:03;;;;;;;9.57;8.57;;;18.10;96.10;;;;;;5097898;28;20567;-43
2022/09/12 07:20:31;;;;;;;8.73;7.83;;;18.20;96.20;;;;;;5096969;28;20172;-47
2022/09/12 07:22:57;;;;;;;8.70;7.80;;;18.40;96.10;;;;;;5080001;28;20400;-46
2022/09/12 07:25:23;;;;;;;8.90;8.00;;;18.60;96.00;;;;;;5097580;28;20498;-43
2022/09/12 07:27:49;;;;;;;8.67;7.80;;;18.80;95.40;;;;;;5096064;28;20712;-45
2022/09/12 07:30:16;;;;;;;8.37;7.67;;;19.20;95.00;;;;;;5094368;28;20221;-47
2022/09/12 07:32:42;;;;;;;8.43;7.73;;;19.80;94.30;;;;;;5097159;28;20463;-46
2022/09/12 07:35:07;;;;;;;8.07;7.37;;;20.30;93.40;;;;;;5098444;28;20468;-44
2022/09/12 07:37:33;;;;;;;7.67;6.97;;;20.20;91.80;;;;;;5096689;28;20657;-46
2022/09/12 07:39:58;;;;;;;7.23;6.53;;;20.60;92.30;;;;;;5096826;28;20176;-44
2022/09/12 07:42:24;;;;;;;8.17;7.40;;;21.30;92.00;;;;;;5098404;28;20462;-45
2022/09/12 07:44:51;;;;;;;6.40;5.80;;;22.30;90.30;;;;;;5098716;28;20201;-45
2022/09/12 07:47:17;;;;;;;6.47;5.97;;;23.10;85.60;;;;;;5099118;28;20180;-42
2022/09/12 07:49:43;;;;;;;6.77;5.40;;;23.70;83.00;;;;;;5097872;28;20432;-46
2022/09/12 07:52:09;;;;;;;6.80;5.83;;;24.20;77.80;;;;;;5097189;28;20444;-46
2022/09/12 07:54:34;;;;;;;5.40;4.90;;;24.40;75.00;;;;;;5099082;28;20184;-43
2022/09/12 07:57:00;;;;;;;5.47;4.50;;;24.50;73.70;;;;;;5097219;28;20551;-46
2022/09/12 07:59:26;;;;;;;4.97;4.57;;;24.80;73.20;;;;;;5097699;28;20487;-43
2022/09/12 08:01:52;;;;;;;4.47;4.07;;;24.90;69.70;;;;;;5097356;28;20175;-42
2022/09/12 08:04:18;;;;;;;5.17;4.20;;;24.70;69.90;;;;;;5096788;28;20448;-45
2022/09/12 08:06:43;;;;;;;4.53;4.13;;;24.80;71.10;;;;;;5096245;28;20180;-46
2022/09/12 08:09:11;;;;;;;4.10;3.80;;;25.00;68.70;;;;;;5095725;28;20230;-43
2022/09/12 08:11:36;;;;;;;4.70;4.30;;;25.30;66.30;;;;;;5095450;28;20280;-43
2022/09/12 08:14:04;;;;;;;4.17;3.77;;;25.40;65.20;;;;;;5076877;28;20558;-45
2022/09/12 08:16:30;;;;;;;6.23;3.70;;;25.60;64.10;;;;;;5084665;28;20202;-44
2022/09/12 08:18:56;;;;;;;3.00;2.80;;;25.90;62.80;;;;;;5075702;28;20528;-45
2022/09/12 08:21:24;;;;;;;3.93;3.63;;;26.30;60.80;;;;;;5075806;28;20525;-46
2022/09/12 08:24:01;;;;;;;3.80;3.50;;;26.60;59.40;;;;;;5074610;28;20423;-44
2022/09/12 08:26:28;;;;;;;3.57;3.13;;;26.50;59.40;;;;;;5098941;28;20531;-45
2022/09/12 08:28:54;;;;;;;4.37;3.50;;;26.80;60.40;;;;;;5098370;28;20457;-44
2022/09/12 08:31:21;;;;;;;3.77;3.37;;;27.40;57.80;;;;;;5098418;28;20414;-45
2022/09/12 08:33:47;;;;;;;3.80;3.50;;;27.70;56.90;;;;;;5097738;28;20296;-48
2022/09/12 08:36:20;;;;;;;3.87;3.57;;;27.80;57.00;;;;;;5096915;28;20843;-45
2022/09/12 08:38:47;;;;;;;4.13;3.60;;;28.30;55.80;;;;;;5096971;28;20200;-44
2022/09/12 08:41:27;;;;;;;4.23;3.93;;;28.70;55.90;;;;;;5098393;28;20423;-46
2022/09/12 08:44:26;;;;;;;3.50;3.20;;;29.10;54.10;;;;;;5096535;28;20446;-44
2022/09/12 08:47:13;;;;;;;4.03;3.57;;;29.60;53.10;;;;;;5097016;28;20428;-45
2022/09/12 08:49:47;;;;;;;3.50;3.20;;;30.50;51.80;;;;;;5097918;28;20900;-46
2022/09/12 08:52:29;;;;;;;4.07;3.77;;;30.60;49.60;;;;;;5097561;28;20415;-44
2022/09/12 08:54:56;;;;;;;4.03;3.73;;;30.80;49.00;;;;;;5097589;28;20454;-45
2022/09/12 08:57:23;;;;;;;4.80;4.40;;;31.10;48.40;;;;;;5097152;28;20458;-43
2022/09/12 08:59:49;;;;;;;3.13;2.93;;;31.00;47.60;;;;;;5095931;28;20427;-44
2022/09/12 09:02:36;;;;;;;3.83;3.53;;;31.20;47.30;;;;;;5094664;28;20409;-45
2022/09/12 09:05:36;;;;;;;3.93;3.63;;;30.90;46.60;;;;;;5097241;28;20423;-43
2022/09/12 09:08:14;;;;;;;3.33;3.10;;;30.00;47.40;;;;;;5093875;28;20389;-48
2022/09/12 09:10:56;;;;;;;3.17;2.87;;;30.10;47.90;;;;;;5093584;28;20424;-44
2022/09/12 09:16:30;;;;;;;3.80;3.50;;;29.60;47.70;;;;;;5093630;28;20429;-47
2022/09/12 09:18:59;;;;;;;3.40;3.10;;;28.80;47.60;;;;;;5093457;28;20415;-51
2022/09/12 09:21:36;;;;;;;4.40;4.00;;;28.40;49.60;;;;;;5092793;28;20837;-50
2022/09/12 09:24:05;;;;;;;5.30;3.67;;;28.20;49.70;;;;;;5094003;28;20434;-47
2022/09/12 09:26:47;;;;;;;3.40;3.10;;;27.80;49.80;;;;;;5093496;28;20494;-47
2022/09/12 09:29:18;;;;;;;4.40;3.37;;;27.60;49.70;;;;;;5094113;28;20549;-48
2022/09/12 09:31:47;;;;;;;3.73;3.43;;;27.20;49.20;;;;;;5096515;28;20389;-46
2022/09/12 09:34:20;;;;;;;3.10;2.90;;;26.90;50.10;;;;;;5095435;28;20462;-50
2022/09/12 09:37:18;;;;;;;3.23;3.03;;;26.70;50.20;;;;;;5094722;28;20799;-48
2022/09/12 09:39:56;;;;;;;3.20;3.00;;;26.80;50.50;;;;;;5079601;28;20447;-47
2022/09/12 09:42:57;;;;;;;3.93;3.00;;;27.20;50.30;;;;;;5098141;28;20808;-46
2022/09/12 09:45:24;;;;;;;2.60;2.40;;;27.20;49.50;;;;;;5075055;28;20467;-47
2022/09/12 09:48:00;;;;;;;3.40;3.10;;;27.70;49.90;;;;;;5074470;28;20408;-51
2022/09/12 09:50:26;;;;;;;3.30;2.90;;;28.50;48.50;;;;;;5075015;28;20427;-48
2022/09/12 09:52:54;;;;;;;2.60;2.40;;;29.20;47.80;;;;;;5076201;28;20397;-47
2022/09/12 09:55:24;;;;;;;2.50;2.30;;;29.70;45.50;;;;;;5074587;28;20500;-46
2022/09/12 09:57:51;;;;;;;2.90;2.70;;;29.90;45.80;;;;;;5071074;28;20438;-49
2022/09/12 10:00:31;;;;;;;2.90;2.50;;;30.50;43.20;;;;;;5074742;28;20433;-49
2022/09/12 10:03:04;;;;;;;2.90;2.70;;;30.80;44.00;;;;;;5074581;28;20423;-50
2022/09/12 10:05:35;;;;;;;2.70;2.50;;;31.50;43.20;;;;;;5077783;28;20455;-53
2022/09/12 10:08:02;;;;;;;2.80;2.60;;;32.40;41.20;;;;;;5093300;28;21121;-50
2022/09/12 10:10:28;;;;;;;3.70;2.90;;;33.00;40.60;;;;;;5093207;28;20678;-51
2022/09/12 10:13:22;;;;;;;2.77;2.43;;;33.80;39.60;;;;;;5093452;28;20412;-52
2022/09/12 10:15:59;;;;;;;2.60;2.40;;;34.30;37.80;;;;;;5081789;28;20192;-50
2022/09/12 10:18:41;;;;;;;3.53;2.30;;;34.20;37.50;;;;;;5072789;28;20708;-49
2022/09/12 10:21:39;;;;;;;2.07;1.97;;;34.60;37.60;;;;;;5090047;28;20430;-51
2022/09/12 10:24:20;;;;;;;2.90;2.23;;;35.20;35.70;;;;;;5090843;28;20465;-52
2022/09/12 10:26:53;;;;;;;2.57;1.97;;;35.60;34.30;;;;;;5092423;28;20437;-51
2022/09/12 10:29:25;;;;;;;2.30;2.10;;;36.00;34.20;;;;;;5091247;28;20873;-50
2022/09/12 10:31:55;;;;;;;3.30;2.27;;;37.00;33.50;;;;;;5089877;28;20449;-48
2022/09/12 10:34:27;;;;;;;1.80;1.70;;;37.30;32.10;;;;;;5092683;28;20464;-51
2022/09/12 10:37:15;;;;;;;2.47;2.00;;;36.20;32.20;;;;;;5071441;28;20561;-50
2022/09/12 10:39:53;;;;;;;2.70;2.50;;;36.20;34.40;;;;;;5088617;28;20461;-50
2022/09/12 10:42:41;;;;;;;2.20;1.97;;;37.00;33.50;;;;;;5084195;28;20444;-52
2022/09/12 10:45:19;;;;;;;2.90;2.40;;;38.30;33.70;;;;;;5094355;28;20417;-53
2022/09/12 10:47:45;;;;;;;1.80;1.70;;;38.60;31.50;;;;;;5094659;28;20413;-48
2022/09/12 10:50:32;;;;;;;1.97;1.77;;;38.10;29.20;;;;;;5091371;28;20443;-47
2022/09/12 10:53:12;;;;;;;2.93;2.00;;;37.00;29.20;;;;;;5074747;28;20472;-49
2022/09/12 10:55:41;;;;;;;1.77;1.67;;;36.80;31.30;;;;;;5092234;28;20533;-50
2022/09/12 10:58:26;;;;;;;1.90;1.80;;;37.10;30.00;;;;;;5092335;28;20752;-47
2022/09/12 11:01:21;;;;;;;2.23;2.03;;;38.10;30.20;;;;;;5089087;28;20399;-49
2022/09/12 11:04:07;;;;;;;2.20;2.00;;;38.90;29.10;;;;;;5091411;28;20419;-49
2022/09/12 11:07:13;;;;;;;2.27;1.70;;;38.20;29.40;;;;;;5091580;28;20534;-51
2022/09/12 11:10:01;;;;;;;2.20;1.93;;;37.00;30.30;;;;;;5062223;28;20447;-52
2022/09/12 11:13:04;;;;;;;1.80;1.70;;;38.40;30.10;;;;;;5094421;28;20416;-50
2022/09/12 11:16:08;;;;;;;2.10;1.90;;;38.60;29.60;;;;;;5092749;28;20442;-50
2022/09/12 11:19:02;;;;;;;2.10;1.90;;;38.20;29.60;;;;;;5090154;28;20480;-50
2022/09/12 11:22:06;;;;;;;1.70;1.60;;;38.10;30.80;;;;;;5094325;28;20398;-48
2022/09/12 11:24:38;;;;;;;2.13;1.87;;;38.80;29.40;;;;;;5010274;28;20754;-51
2022/09/12 11:27:25;;;;;;;2.50;2.30;;;38.90;29.10;;;;;;5061144;28;20902;-50
2022/09/12 11:30:02;;;;;;;2.27;1.80;;;38.30;29.70;;;;;;5092927;28;20433;-53
2022/09/12 11:33:07;;;;;;;1.90;1.70;;;38.60;29.80;;;;;;5092690;28;20743;-49
2022/09/12 11:35:34;;;;;;;2.17;1.97;;;38.30;29.80;;;;;;5085174;28;20927;-52
2022/09/12 11:38:27;;;;;;;1.93;1.83;;;38.20;29.50;;;;;;5089329;28;20891;-49
2022/09/12 11:40:54;;;;;;;2.27;2.07;;;38.10;29.50;;;;;;5094210;28;20391;-49
2022/09/12 11:43:32;;;;;;;1.60;1.50;;;38.00;29.60;;;;;;5094277;28;20418;-49
2022/09/12 11:46:04;;;;;;;1.70;1.60;;;38.50;29.30;;;;;;5091739;28;20441;-50
2022/09/12 11:48:59;;;;;;;1.70;1.60;;;38.90;29.40;;;;;;5090146;28;20529;-50
2022/09/12 11:51:48;;;;;;;1.87;1.67;;;39.00;29.70;;;;;;5089739;28;20425;-50
2022/09/12 11:54:19;;;;;;;1.87;1.60;;;39.80;29.10;;;;;;5072221;28;20431;-49
2022/09/12 11:56:46;;;;;;;3.03;1.90;;;39.80;28.40;;;;;;5087824;28;20465;-49
2022/09/12 11:59:38;;;;;;;2.07;1.53;;;39.60;28.50;;;;;;5091365;28;20428;-54
2022/09/12 12:02:11;;;;;;;1.93;1.83;;;39.70;28.20;;;;;;5091092;28;20431;-53
2022/09/12 12:04:55;;;;;;;2.17;1.40;;;40.10;28.10;;;;;;5092328;28;20535;-50
2022/09/12 12:07:20;;;;;;;2.20;1.70;;;40.00;28.10;;;;;;5094020;28;20419;-48
2022/09/12 12:09:50;;;;;;;1.80;1.70;;;39.00;28.70;;;;;;5096123;28;20433;-48
2022/09/12 12:12:21;;;;;;;1.73;1.63;;;39.40;28.60;;;;;;5093072;28;20298;-48
2022/09/12 12:14:49;;;;;;;2.43;2.13;;;39.80;28.10;;;;;;5093870;28;20437;-50
2022/09/12 12:17:25;;;;;;;2.53;1.80;;;39.00;28.50;;;;;;5092837;28;20461;-50
2022/09/12 12:20:02;;;;;;;2.50;2.30;;;38.20;29.10;;;;;;5093883;28;20449;-51
2022/09/12 12:22:28;;;;;;;3.23;2.30;;;37.80;29.40;;;;;;5095625;28;20492;-49
2022/09/12 12:24:53;;;;;;;1.80;1.70;;;38.90;29.30;;;;;;5091664;28;20851;-52
2022/09/12 12:27:52;;;;;;;2.63;1.57;;;39.70;28.70;;;;;;5095910;28;20180;-49
2022/09/12 12:30:30;;;;;;;4.50;1.70;;;40.80;28.00;;;;;;5088816;28;20197;-48
2022/09/12 12:33:11;;;;;;;2.00;1.90;;;40.90;27.90;;;;;;5094141;28;20423;-54
2022/09/12 12:35:58;;;;;;;2.03;1.60;;;39.80;28.30;;;;;;5095130;28;20450;-48
2022/09/12 12:38:26;;;;;;;1.70;1.60;;;39.80;28.70;;;;;;5095269;28;20904;-48
2022/09/12 12:40:53;;;;;;;1.60;1.50;;;39.40;28.20;;;;;;5096396;28;20807;-51
2022/09/12 12:43:30;;;;;;;1.60;1.40;;;40.40;28.70;;;;;;5095579;28;20841;-50
2022/09/12 12:46:02;;;;;;;2.00;1.80;;;41.20;27.60;;;;;;5097137;28;20512;-52
2022/09/12 12:48:30;;;;;;;1.83;1.60;;;41.20;27.80;;;;;;5095635;28;21009;-49
2022/09/12 12:51:26;;;;;;;1.70;1.57;;;41.80;27.30;;;;;;5095817;28;20854;-50
2022/09/12 12:53:52;;;;;;;2.70;1.80;;;41.10;26.90;;;;;;5095199;28;20425;-52
2022/09/12 12:56:28;;;;;;;5.90;2.83;;;41.20;27.10;;;;;;5096597;28;20413;-51
2022/09/12 12:58:59;;;;;;;2.17;1.50;;;41.60;27.50;;;;;;5094011;28;20433;-48
2022/09/12 13:01:26;;;;;;;2.00;1.80;;;41.90;26.40;;;;;;5093643;28;20414;-52
2022/09/12 13:03:55;;;;;;;2.33;1.53;;;41.70;26.10;;;;;;5076712;28;20509;-48
2022/09/12 13:06:31;;;;;;;1.50;1.37;;;41.70;26.30;;;;;;5091413;28;20694;-54
2022/09/12 13:09:06;;;;;;;1.77;1.57;;;42.00;26.10;;;;;;5092048;28;20437;-51